Time;durP1;ratioP1;P1;durP2;ratioP2;P2;SDS_P1;SDS_P2;PMS_P1;PMS_P2;Temp;Humidity;BMP_temperature;BMP_pressure;BME280_temperature;BME280_humidity;BME280_pressure;Samples;Min_cycle;Max_cycle;Signal;HPM_P1;HPM_P2
2023/08/06 00:00:41;;;;;;;;;;;;;;;23.99;68.42;100088.63;107775;1257;74749;-69
2023/08/06 00:03:09;;;;;;;;;;;;;;;24.00;68.57;100083.81;107612;1254;75038;-70
2023/08/06 00:05:36;;;;;;;;;;;;;;;24.01;68.64;100085.80;107793;1260;75143;-70
2023/08/06 00:08:04;;;;;;;;;;;;;;;24.03;68.81;100088.40;107809;1257;61186;-72
2023/08/06 00:10:32;;;;;;;;;;;;;;;24.03;68.87;100087.08;107736;1257;61054;-69
2023/08/06 00:12:59;;;;;;;;;;;;;;;24.03;68.85;100085.35;107761;1257;74669;-70
2023/08/06 00:15:27;;;;;;;;;;;;;;;24.02;68.99;100082.44;107695;1254;72738;-69
2023/08/06 00:17:54;;;;;;;;;;;;;;;24.02;69.00;100074.26;107748;1257;72824;-70
2023/08/06 00:20:23;;;;;;;;;;;;;;;24.00;69.05;100070.41;107731;1256;61786;-70
2023/08/06 00:22:51;;;;;;;;;;;;;;;23.91;69.26;100066.17;107857;1254;60968;-71
2023/08/06 00:25:19;;;;;;;;;;;;;;;23.96;69.26;100068.83;107747;1257;73603;-70
2023/08/06 00:27:47;;;;;;;;;;;;;;;23.94;69.10;100071.98;107684;1260;72179;-70
2023/08/06 00:30:14;;;;;;;;;;;;;;;23.93;69.24;100065.42;107757;1260;71497;-68
2023/08/06 00:32:42;;;;;;;;;;;;;;;23.82;69.64;100060.45;107729;1259;61125;-69
2023/08/06 00:35:10;;;;;;;;;;;;;;;23.79;69.86;100060.70;107722;1261;59092;-67
2023/08/06 00:37:38;;;;;;;;;;;;;;;23.79;69.95;100061.55;107744;1262;74731;-68
2023/08/06 00:40:06;;;;;;;;;;;;;;;23.91;69.76;100063.52;107780;1260;71759;-68
2023/08/06 00:42:34;;;;;;;;;;;;;;;23.96;69.38;100059.88;107683;1259;71713;-68
2023/08/06 00:45:02;;;;;;;;;;;;;;;23.94;69.34;100062.27;107760;1257;62132;-69
2023/08/06 00:47:30;;;;;;;;;;;;;;;23.95;69.37;100059.00;107805;1257;61086;-68
2023/08/06 00:49:58;;;;;;;;;;;;;;;23.97;69.23;100052.97;107728;1257;73448;-68
2023/08/06 00:52:25;;;;;;;;;;;;;;;23.97;69.34;100051.80;107794;1257;72914;-68
2023/08/06 00:54:53;;;;;;;;;;;;;;;23.93;69.32;100053.42;107712;1257;72692;-68
2023/08/06 00:57:22;;;;;;;;;;;;;;;23.89;69.40;100058.98;107716;1257;61800;-69
2023/08/06 00:59:49;;;;;;;;;;;;;;;23.88;69.35;100054.09;107512;1257;60036;-69
2023/08/06 01:02:17;;;;;;;;;;;;;;;23.85;69.32;100048.84;107752;1257;75140;-69
2023/08/06 01:04:44;;;;;;;;;;;;;;;23.84;69.28;100048.66;107790;1258;71581;-71
2023/08/06 01:07:31;;;;;;;;;;;;;;;23.84;69.19;100046.08;107785;1262;71254;-70
2023/08/06 01:10:24;;;;;;;;;;;;;;;23.82;69.30;100043.39;108001;1257;60470;-69
2023/08/06 01:12:53;;;;;;;;;;;;;;;23.81;69.21;100042.98;107827;1256;61255;-69
2023/08/06 01:15:29;;;;;;;;;;;;;;;23.80;69.13;100041.02;107686;1262;74838;-69
2023/08/06 01:17:58;;;;;;;;;;;;;;;23.80;69.09;100039.23;107682;1258;71362;-70
2023/08/06 01:20:29;;;;;;;;;;;;;;;23.80;69.16;100037.83;107647;1257;73628;-69
2023/08/06 01:22:57;;;;;;;;;;;;;;;23.79;69.07;100037.32;107755;1257;61409;-70
2023/08/06 01:25:41;;;;;;;;;;;;;;;23.75;69.15;100037.80;107670;1260;61018;-69
2023/08/06 01:28:11;;;;;;;;;;;;;;;23.73;69.09;100031.27;107813;1262;74650;-69
2023/08/06 01:30:40;;;;;;;;;;;;;;;23.73;68.93;100028.73;107722;1262;72779;-70
2023/08/06 01:33:09;;;;;;;;;;;;;;;23.75;68.98;100028.84;107580;1257;71413;-70
2023/08/06 01:35:37;;;;;;;;;;;;;;;23.75;68.97;100025.17;107922;1258;61658;-71
2023/08/06 01:38:04;;;;;;;;;;;;;;;23.77;68.99;100028.72;107645;1257;61025;-70
2023/08/06 01:40:32;;;;;;;;;;;;;;;23.78;68.96;100023.35;107855;1258;74649;-71
2023/08/06 01:43:00;;;;;;;;;;;;;;;23.74;69.08;100022.88;107838;1260;73754;-70
2023/08/06 01:45:28;;;;;;;;;;;;;;;23.69;68.88;100025.34;107696;1258;71313;-69
2023/08/06 01:47:55;;;;;;;;;;;;;;;23.62;69.14;100021.14;107771;1262;61624;-68
2023/08/06 01:50:23;;;;;;;;;;;;;;;23.58;69.12;100022.07;107675;1262;61193;-70
2023/08/06 01:52:51;;;;;;;;;;;;;;;23.55;69.08;100023.88;107769;1262;74702;-70
2023/08/06 01:55:19;;;;;;;;;;;;;;;23.52;69.18;100019.61;107694;1258;71452;-70
2023/08/06 01:57:46;;;;;;;;;;;;;;;23.49;69.29;100018.13;107634;1257;71382;-68
2023/08/06 02:00:14;;;;;;;;;;;;;;;23.46;69.38;100016.30;107576;1261;61985;-69
2023/08/06 02:02:41;;;;;;;;;;;;;;;23.43;69.50;100013.33;108001;1256;61275;-69
2023/08/06 02:05:09;;;;;;;;;;;;;;;23.36;69.43;100009.38;107889;1260;74738;-68
2023/08/06 02:07:39;;;;;;;;;;;;;;;23.21;70.13;100012.30;107748;1262;71933;-69
2023/08/06 02:10:07;;;;;;;;;;;;;;;23.31;70.00;100011.74;107852;1257;72750;-69
2023/08/06 02:12:35;;;;;;;;;;;;;;;23.32;70.01;100011.46;107668;1263;60491;-70
2023/08/06 02:15:02;;;;;;;;;;;;;;;23.30;69.88;100011.34;107717;1255;61152;-70
2023/08/06 02:17:30;;;;;;;;;;;;;;;23.27;70.07;100012.92;107775;1257;73477;-70
2023/08/06 02:19:57;;;;;;;;;;;;;;;23.25;70.10;100012.63;107734;1257;72872;-69
2023/08/06 02:22:25;;;;;;;;;;;;;;;23.23;70.23;100014.91;107872;1258;71738;-68
2023/08/06 02:24:53;;;;;;;;;;;;;;;23.19;70.23;100015.08;107838;1257;60572;-69
2023/08/06 02:27:20;;;;;;;;;;;;;;;23.18;70.26;100016.61;107656;1254;59872;-69
2023/08/06 02:29:48;;;;;;;;;;;;;;;23.17;70.30;100016.90;107811;1257;73454;-69
2023/08/06 02:32:15;;;;;;;;;;;;;;;23.15;70.23;100017.88;107708;1258;72535;-69
2023/08/06 02:34:42;;;;;;;;;;;;;;;23.08;70.44;100020.11;107764;1257;71715;-69
2023/08/06 02:37:10;;;;;;;;;;;;;;;22.96;70.88;100020.63;107652;1258;62632;-69
2023/08/06 02:39:39;;;;;;;;;;;;;;;22.96;71.00;100021.33;107741;1261;61092;-68
2023/08/06 02:42:07;;;;;;;;;;;;;;;22.92;71.15;100024.92;107960;1254;73852;-68
2023/08/06 02:44:35;;;;;;;;;;;;;;;22.91;71.24;100026.02;107743;1257;70778;-69
2023/08/06 02:47:04;;;;;;;;;;;;;;;22.93;71.28;100024.73;107776;1257;71997;-69
2023/08/06 02:49:32;;;;;;;;;;;;;;;22.89;71.53;100026.48;107730;1261;61191;-70
2023/08/06 02:52:00;;;;;;;;;;;;;;;23.02;71.19;100025.73;107404;1258;61192;-70
2023/08/06 02:54:28;;;;;;;;;;;;;;;23.07;71.09;100024.69;107775;1257;72541;-69
2023/08/06 02:56:55;;;;;;;;;;;;;;;23.08;70.90;100019.35;107696;1257;71273;-71
2023/08/06 02:59:31;;;;;;;;;;;;;;;23.00;71.21;100026.15;107837;1260;72271;-71
2023/08/06 03:02:20;;;;;;;;;;;;;;;23.02;71.19;100026.81;107846;1254;62216;-70
2023/08/06 03:05:01;;;;;;;;;;;;;;;23.12;71.07;100022.14;107645;1257;61244;-69
2023/08/06 03:07:33;;;;;;;;;;;;;;;23.16;70.76;100020.99;107671;1257;75164;-69
2023/08/06 03:10:06;;;;;;;;;;;;;;;23.14;70.89;100021.51;107750;1261;72904;-68
2023/08/06 03:12:35;;;;;;;;;;;;;;;23.03;71.17;100021.17;107862;1258;71115;-69
2023/08/06 03:15:03;;;;;;;;;;;;;;;23.03;71.33;100023.10;107749;1257;60482;-69
2023/08/06 03:17:31;;;;;;;;;;;;;;;23.13;71.13;100020.71;107469;1256;61129;-70
2023/08/06 03:19:59;;;;;;;;;;;;;;;23.26;70.66;100020.45;107677;1257;77918;-70
2023/08/06 03:22:27;;;;;;;;;;;;;;;23.28;70.54;100018.46;107712;1258;72200;-72
2023/08/06 03:24:55;;;;;;;;;;;;;;;23.27;70.56;100016.97;107614;1257;71715;-69
2023/08/06 03:27:24;;;;;;;;;;;;;;;23.36;70.17;100014.04;107664;1259;63004;-70
2023/08/06 03:29:52;;;;;;;;;;;;;;;23.39;70.12;100010.38;107640;1256;61256;-71
2023/08/06 03:32:20;;;;;;;;;;;;;;;23.44;69.86;100009.77;92713;1257;10001837;-69
2023/08/06 03:34:48;;;;;;;;;;;;;;;23.48;69.74;100006.75;107667;1257;61119;-69
2023/08/06 03:37:16;;;;;;;;;;;;;;;23.54;69.68;100003.22;107844;1257;61224;-69
2023/08/06 03:39:44;;;;;;;;;;;;;;;23.60;69.43;100003.89;107751;1257;72063;-71
2023/08/06 03:42:12;;;;;;;;;;;;;;;23.67;69.48;100002.10;107722;1260;70931;-70
2023/08/06 03:44:39;;;;;;;;;;;;;;;23.73;69.18;100000.66;108953;1257;60793;-72
2023/08/06 03:47:07;;;;;;;;;;;;;;;23.79;68.98;99994.17;108547;1256;61235;-70
2023/08/06 03:49:35;;;;;;;;;;;;;;;23.85;68.78;99992.56;108122;1257;73436;-69
2023/08/06 03:52:03;;;;;;;;;;;;;;;23.78;68.93;99991.89;107592;1257;73052;-70
2023/08/06 03:54:31;;;;;;;;;;;;;;;23.79;68.97;99989.09;107850;1257;73157;-68
2023/08/06 03:56:58;;;;;;;;;;;;;;;23.85;68.81;99992.41;107602;1261;61343;-70
2023/08/06 03:59:26;;;;;;;;;;;;;;;23.91;68.82;99988.39;107619;1256;61174;-69
2023/08/06 04:01:55;;;;;;;;;;;;;;;23.97;68.49;99988.05;108626;1256;75654;-69
2023/08/06 04:04:23;;;;;;;;;;;;;;;24.12;68.25;99986.86;107643;1263;72875;-68
2023/08/06 04:06:51;;;;;;;;;;;;;;;24.31;67.72;99983.05;107659;1257;71879;-69
2023/08/06 04:09:22;;;;;;;;;;;;;;;24.41;67.02;99978.30;107615;1256;61030;-69
2023/08/06 04:11:53;;;;;;;;;;;;;;;24.51;66.69;99975.77;107621;1257;60541;-70
2023/08/06 04:14:21;;;;;;;;;;;;;;;24.49;66.64;99974.34;107661;1257;73466;-69
2023/08/06 04:16:49;;;;;;;;;;;;;;;24.52;66.70;99973.52;107753;1257;74420;-69
2023/08/06 04:19:17;;;;;;;;;;;;;;;24.60;66.36;99973.50;107591;1260;72012;-70
2023/08/06 04:21:44;;;;;;;;;;;;;;;24.71;66.17;99970.46;107538;1260;62155;-70
2023/08/06 04:24:13;;;;;;;;;;;;;;;24.82;65.81;99971.88;107593;1257;61126;-70
2023/08/06 04:26:40;;;;;;;;;;;;;;;24.91;65.61;99964.44;107634;1254;74740;-69
2023/08/06 04:29:08;;;;;;;;;;;;;;;25.01;65.34;99964.82;107954;1257;74046;-71
2023/08/06 04:31:35;;;;;;;;;;;;;;;25.13;64.96;99959.45;107521;1254;71798;-70
2023/08/06 04:34:03;;;;;;;;;;;;;;;25.22;64.30;99955.21;107676;1258;61355;-69
2023/08/06 04:36:31;;;;;;;;;;;;;;;25.30;64.04;99952.90;107893;1257;60825;-69
2023/08/06 04:38:59;;;;;;;;;;;;;;;25.47;63.67;99951.06;107863;1254;72383;-70
2023/08/06 04:41:27;;;;;;;;;;;;;;;25.62;62.87;99948.90;107898;1254;71597;-68
2023/08/06 04:43:54;;;;;;;;;;;;;;;25.76;62.26;99946.03;108942;1257;73066;-70
2023/08/06 04:46:22;;;;;;;;;;;;;;;25.87;61.69;99943.42;107660;1258;61190;-69
2023/08/06 04:48:50;;;;;;;;;;;;;;;25.96;61.14;99940.78;107817;1255;60201;-71
2023/08/06 04:51:17;;;;;;;;;;;;;;;26.06;60.88;99937.52;107423;1258;237927;-71
2023/08/06 04:53:45;;;;;;;;;;;;;;;26.15;60.21;99925.02;108595;1257;72997;-71
2023/08/06 04:56:12;;;;;;;;;;;;;;;26.22;59.68;99926.79;107606;1260;71692;-71
2023/08/06 04:58:40;;;;;;;;;;;;;;;26.29;59.50;99926.84;108802;1257;61274;-71
2023/08/06 05:01:08;;;;;;;;;;;;;;;26.38;59.31;99920.20;108754;1254;60748;-71
2023/08/06 05:03:35;;;;;;;;;;;;;;;26.47;59.25;99921.14;107618;1256;75032;-69
2023/08/06 05:06:03;;;;;;;;;;;;;;;26.58;59.20;99918.96;108663;1257;72106;-70
2023/08/06 05:08:30;;;;;;;;;;;;;;;26.66;58.79;99920.58;107639;1260;76291;-70
2023/08/06 05:10:58;;;;;;;;;;;;;;;26.75;58.81;99921.26;107774;1257;61836;-71
2023/08/06 05:13:25;;;;;;;;;;;;;;;26.83;58.87;99919.83;107607;1256;61280;-70
2023/08/06 05:15:53;;;;;;;;;;;;;;;26.80;58.92;99919.17;100268;1257;10002633;-69
2023/08/06 05:18:22;;;;;;;;;;;;;;;26.86;58.64;99913.73;107832;1256;72908;-70
2023/08/06 05:20:49;;;;;;;;;;;;;;;26.96;58.46;99909.00;107622;1257;61123;-70
2023/08/06 05:23:17;;;;;;;;;;;;;;;27.04;58.11;99904.83;107594;1257;60971;-73
2023/08/06 05:25:44;;;;;;;;;;;;;;;27.10;57.67;99908.39;107755;1256;73907;-70
2023/08/06 05:28:12;;;;;;;;;;;;;;;27.18;57.33;99903.98;107553;1257;72895;-73
2023/08/06 05:30:40;;;;;;;;;;;;;;;27.25;57.23;99897.27;107598;1255;63874;-71
2023/08/06 05:33:10;;;;;;;;;;;;;;;27.34;56.96;99896.99;107734;1257;61099;-72
2023/08/06 05:35:37;;;;;;;;;;;;;;;27.44;56.34;99889.66;107451;1257;59708;-70
2023/08/06 05:38:05;;;;;;;;;;;;;;;27.51;55.83;99884.89;107594;1257;65842;-72
2023/08/06 05:40:35;;;;;;;;;;;;;;;27.61;55.51;99885.70;107534;1257;73220;-70
2023/08/06 05:43:03;;;;;;;;;;;;;;;27.71;55.41;99884.23;107713;1257;72891;-70
2023/08/06 05:45:31;;;;;;;;;;;;;;;27.81;55.36;99882.30;107811;1257;60542;-72
2023/08/06 05:47:58;;;;;;;;;;;;;;;27.91;54.89;99878.17;107650;1256;61224;-71
2023/08/06 05:50:26;;;;;;;;;;;;;;;28.01;54.53;99871.98;107679;1256;64542;-70
2023/08/06 05:52:54;;;;;;;;;;;;;;;28.09;54.26;99871.59;107670;1257;63850;-71
2023/08/06 05:55:21;;;;;;;;;;;;;;;28.19;54.22;99865.77;107710;1257;63790;-72
2023/08/06 05:57:49;;;;;;;;;;;;;;;28.31;53.38;99858.79;107643;1258;61214;-71
2023/08/06 06:00:16;;;;;;;;;;;;;;;28.42;52.51;99853.62;107428;1257;61136;-71
2023/08/06 06:02:46;;;;;;;;;;;;;;;28.53;51.95;99853.22;108413;1257;64519;-71
2023/08/06 06:05:15;;;;;;;;;;;;;;;28.62;51.38;99852.56;107471;1256;63860;-72
2023/08/06 06:07:43;;;;;;;;;;;;;;;28.75;51.46;99850.95;107432;1254;64940;-72
2023/08/06 06:10:10;;;;;;;;;;;;;;;28.88;51.21;99843.14;107534;1257;60137;-71
2023/08/06 06:12:38;;;;;;;;;;;;;;;29.00;50.49;99840.67;107695;1254;61061;-72
2023/08/06 06:15:06;;;;;;;;;;;;;;;29.11;50.28;99839.29;107515;1260;65770;-74
2023/08/06 06:17:33;;;;;;;;;;;;;;;29.24;50.20;99836.64;107713;1257;62533;-71
2023/08/06 06:20:03;;;;;;;;;;;;;;;29.38;50.12;99837.27;107603;1257;62703;-71
2023/08/06 06:22:31;;;;;;;;;;;;;;;29.52;49.77;99834.27;107633;1254;61511;-71
2023/08/06 06:24:59;;;;;;;;;;;;;;;29.65;49.54;99828.52;107694;1258;61384;-72
2023/08/06 06:27:26;;;;;;;;;;;;;;;29.78;49.05;99827.66;107819;1255;67740;-70
2023/08/06 06:29:54;;;;;;;;;;;;;;;29.87;48.50;99822.08;107671;1254;64125;-71
2023/08/06 06:32:22;;;;;;;;;;;;;;;29.93;48.25;99818.09;107689;1260;63941;-72
2023/08/06 06:34:49;;;;;;;;;;;;;;;29.98;48.09;99814.27;107759;1257;61248;-72
2023/08/06 06:37:17;;;;;;;;;;;;;;;30.04;47.95;99808.71;107785;1254;61182;-72
2023/08/06 06:39:44;;;;;;;;;;;;;;;30.11;48.41;99808.73;107637;1257;65850;-73
2023/08/06 06:42:12;;;;;;;;;;;;;;;30.16;47.84;99801.67;107584;1257;62809;-73
2023/08/06 06:44:41;;;;;;;;;;;;;;;30.23;47.14;99799.66;107822;1256;72036;-73
2023/08/06 06:47:09;;;;;;;;;;;;;;;30.30;47.16;99797.01;107641;1260;61180;-71
2023/08/06 06:49:37;;;;;;;;;;;;;;;30.35;47.34;99796.08;107781;1259;59360;-74
2023/08/06 06:52:05;;;;;;;;;;;;;;;30.40;47.27;99794.93;107806;1254;66116;-74
2023/08/06 06:54:32;;;;;;;;;;;;;;;30.43;46.86;99789.30;107718;1255;63175;-72
2023/08/06 06:57:00;;;;;;;;;;;;;;;30.49;47.11;99790.09;107653;1257;63916;-72
2023/08/06 06:59:27;;;;;;;;;;;;;;;30.57;46.85;99789.61;107668;1258;61807;-73
2023/08/06 07:01:55;;;;;;;;;;;;;;;30.66;46.80;99781.95;107611;1256;61638;-72
2023/08/06 07:04:23;;;;;;;;;;;;;;;30.78;46.75;99777.80;107608;1257;74742;-74
2023/08/06 07:06:52;;;;;;;;;;;;;;;30.88;47.12;99777.69;107709;1256;63953;-74
2023/08/06 07:09:19;;;;;;;;;;;;;;;30.96;47.07;99774.42;107797;1257;62689;-73
2023/08/06 07:11:47;;;;;;;;;;;;;;;31.04;47.37;99773.13;107687;1258;61164;-72
2023/08/06 07:14:14;;;;;;;;;;;;;;;31.12;47.08;99767.27;107635;1256;61164;-72
2023/08/06 07:16:42;;;;;;;;;;;;;;;31.20;46.96;99764.38;107804;1256;64605;-73
2023/08/06 07:19:09;;;;;;;;;;;;;;;31.27;46.57;99764.52;107620;1257;62514;-74
2023/08/06 07:21:37;;;;;;;;;;;;;;;31.30;45.84;99761.48;107778;1257;63955;-71
2023/08/06 07:24:04;;;;;;;;;;;;;;;31.32;45.37;99753.81;107722;1256;59145;-72
2023/08/06 07:26:32;;;;;;;;;;;;;;;31.39;45.50;99749.95;107743;1262;60437;-74
2023/08/06 07:28:59;;;;;;;;;;;;;;;31.45;44.69;99746.45;107643;1256;65871;-71
2023/08/06 07:31:27;;;;;;;;;;;;;;;31.52;44.58;99738.38;107790;1256;66513;-73
2023/08/06 07:33:54;;;;;;;;;;;;;;;31.58;44.51;99734.41;107470;1257;63858;-69
2023/08/06 07:36:24;;;;;;;;;;;;;;;31.66;45.05;99739.73;107767;1255;62208;-69
2023/08/06 07:38:55;;;;;;;;;;;;;;;31.75;44.96;99733.41;107658;1257;61117;-68
2023/08/06 07:41:23;;;;;;;;;;;;;;;31.82;44.23;99733.21;107644;1255;65911;-69
2023/08/06 07:43:51;;;;;;;;;;;;;;;31.85;44.20;99732.84;107751;1257;62719;-69
2023/08/06 07:46:18;;;;;;;;;;;;;;;31.92;44.32;99736.77;107795;1257;63875;-71
2023/08/06 07:48:46;;;;;;;;;;;;;;;32.01;43.95;99734.71;107833;1257;61317;-69
2023/08/06 07:51:13;;;;;;;;;;;;;;;32.08;43.61;99732.28;107662;1257;60091;-70
2023/08/06 07:53:41;;;;;;;;;;;;;;;32.10;43.13;99731.00;107873;1257;65955;-69
2023/08/06 07:56:08;;;;;;;;;;;;;;;32.10;43.17;99726.03;107624;1257;64408;-72
2023/08/06 07:58:36;;;;;;;;;;;;;;;32.14;43.29;99722.86;107689;1257;63938;-69
2023/08/06 08:01:03;;;;;;;;;;;;;;;32.18;43.20;99716.38;107729;1256;61140;-69
2023/08/06 08:03:32;;;;;;;;;;;;;;;32.28;43.70;99713.19;107707;1257;60268;-69
2023/08/06 08:05:59;;;;;;;;;;;;;;;32.38;43.26;99710.39;107711;1254;66326;-69
2023/08/06 08:08:27;;;;;;;;;;;;;;;32.50;42.55;99708.13;107723;1257;73610;-69
2023/08/06 08:10:55;;;;;;;;;;;;;;;32.60;42.76;99710.82;107660;1258;62571;-70
2023/08/06 08:13:22;;;;;;;;;;;;;;;32.67;42.02;99707.04;107585;1256;61352;-70
2023/08/06 08:15:50;;;;;;;;;;;;;;;32.71;41.88;99704.98;107714;1257;62625;-71
2023/08/06 08:18:17;;;;;;;;;;;;;;;32.77;42.00;99698.74;107676;1256;64952;-71
2023/08/06 08:20:45;;;;;;;;;;;;;;;32.83;41.57;99695.70;107688;1257;63800;-69
2023/08/06 08:23:12;;;;;;;;;;;;;;;32.89;41.66;99695.32;107882;1256;63904;-65
2023/08/06 08:25:39;;;;;;;;;;;;;;;33.01;41.65;99694.85;107774;1256;61256;-69
2023/08/06 08:28:07;;;;;;;;;;;;;;;33.12;41.70;99691.17;107822;1254;61244;-70
2023/08/06 08:30:34;;;;;;;;;;;;;;;33.20;41.29;99689.64;107657;1256;65828;-70
2023/08/06 08:33:02;;;;;;;;;;;;;;;33.27;40.97;99691.11;107589;1257;63781;-69
2023/08/06 08:35:30;;;;;;;;;;;;;;;33.32;41.09;99686.66;107606;1257;62560;-69
2023/08/06 08:37:57;;;;;;;;;;;;;;;33.33;40.79;99682.61;107585;1256;61242;-70
2023/08/06 08:40:27;;;;;;;;;;;;;;;33.34;41.11;99684.48;107733;1257;61163;-77
2023/08/06 08:42:56;;;;;;;;;;;;;;;33.41;41.03;99682.48;107777;1254;65722;-68
2023/08/06 08:45:23;;;;;;;;;;;;;;;33.46;40.71;99684.42;107788;1260;71127;-70
2023/08/06 08:47:51;;;;;;;;;;;;;;;33.51;40.23;99685.02;107722;1257;72753;-71
2023/08/06 08:50:19;;;;;;;;;;;;;;;33.54;39.37;99679.41;107846;1257;61369;-69
2023/08/06 08:52:48;;;;;;;;;;;;;;;33.55;39.34;99674.80;107646;1260;62462;-69
2023/08/06 08:55:16;;;;;;;;;;;;;;;33.60;40.06;99672.06;107830;1259;65056;-69
2023/08/06 08:57:44;;;;;;;;;;;;;;;33.69;40.04;99664.13;107845;1257;63799;-69
2023/08/06 09:00:14;;;;;;;;;;;;;;;33.76;39.39;99660.06;107780;1256;63733;-69
2023/08/06 09:02:41;;;;;;;;;;;;;;;33.81;39.18;99658.50;107670;1258;61129;-68
2023/08/06 09:05:09;;;;;;;;;;;;;;;33.89;40.21;99655.05;107777;1260;61118;-70
2023/08/06 09:07:46;;;;;;;;;;;;;;;34.02;40.18;99649.58;107693;1256;64656;-76
2023/08/06 09:10:13;;;;;;;;;;;;;;;34.11;39.14;99645.05;107778;1256;64018;-72
2023/08/06 09:12:41;;;;;;;;;;;;;;;34.10;38.51;99639.20;107521;1257;62595;-74
2023/08/06 09:15:08;;;;;;;;;;;;;;;34.09;38.87;99642.23;107589;1257;61299;-76
2023/08/06 09:17:36;;;;;;;;;;;;;;;34.13;38.92;99637.22;107879;1256;61232;-71
2023/08/06 09:20:13;;;;;;;;;;;;;;;34.21;39.10;99633.11;107708;1257;64617;-70
2023/08/06 09:22:42;;;;;;;;;;;;;;;34.30;39.41;99630.45;107612;1261;62625;-69
2023/08/06 09:25:10;;;;;;;;;;;;;;;34.40;39.95;99627.41;108369;1257;63798;-70
2023/08/06 09:27:37;;;;;;;;;;;;;;;34.49;39.57;99620.15;107736;1258;61319;-70
2023/08/06 09:30:06;;;;;;;;;;;;;;;34.55;38.18;99619.61;107908;1256;59973;-70
2023/08/06 09:32:52;;;;;;;;;;;;;;;34.51;37.42;99615.42;107816;1254;67234;-69
2023/08/06 09:35:21;;;;;;;;;;;;;;;34.51;37.80;99609.73;107905;1259;62738;-71
2023/08/06 09:37:48;;;;;;;;;;;;;;;34.52;37.18;99607.40;107914;1257;64042;-69
2023/08/06 09:40:26;;;;;;;;;;;;;;;34.51;37.08;99601.38;107754;1257;61388;-70
2023/08/06 09:42:54;;;;;;;;;;;;;;;34.56;37.58;99596.58;107907;1256;61223;-70
2023/08/06 09:45:22;;;;;;;;;;;;;;;34.63;37.71;99595.49;107794;1256;65800;-70
2023/08/06 09:47:50;;;;;;;;;;;;;;;34.69;38.02;99594.05;107767;1259;63868;-71
2023/08/06 09:50:18;;;;;;;;;;;;;;;34.76;38.39;99588.89;107731;1257;62472;-70
2023/08/06 09:52:49;;;;;;;;;;;;;;;34.81;38.69;99582.96;107803;1257;59354;-71
2023/08/06 09:55:16;;;;;;;;;;;;;;;34.83;38.31;99574.87;107779;1257;61120;-67
2023/08/06 09:57:44;;;;;;;;;;;;;;;34.87;37.57;99574.27;107948;1259;65875;-70
2023/08/06 10:00:13;;;;;;;;;;;;;;;34.93;37.75;99572.66;107685;1257;65012;-71
2023/08/06 10:02:40;;;;;;;;;;;;;;;34.98;38.24;99567.63;107760;1256;63865;-69
2023/08/06 10:05:08;;;;;;;;;;;;;;;35.06;38.00;99568.37;107780;1257;60914;-70
2023/08/06 10:07:36;;;;;;;;;;;;;;;35.08;38.17;99568.36;107734;1257;59086;-68
2023/08/06 10:10:04;;;;;;;;;;;;;;;35.07;38.20;99568.01;107878;1256;64455;-70
2023/08/06 10:12:34;;;;;;;;;;;;;;;35.05;38.29;99565.61;107783;1257;62520;-70
2023/08/06 10:15:03;;;;;;;;;;;;;;;35.05;37.96;99565.15;107730;1256;63841;-68
2023/08/06 10:17:30;;;;;;;;;;;;;;;35.09;38.01;99562.54;107767;1257;60392;-69
2023/08/06 10:20:18;;;;;;;;;;;;;;;35.13;37.70;99557.09;107763;1257;61131;-70
2023/08/06 10:22:45;;;;;;;;;;;;;;;35.13;37.93;99552.02;107750;1256;65795;-69
2023/08/06 10:25:16;;;;;;;;;;;;;;;35.16;38.27;99552.11;107883;1257;64290;-70
2023/08/06 10:27:47;;;;;;;;;;;;;;;35.21;37.42;99548.46;107741;1257;62649;-69
2023/08/06 10:30:21;;;;;;;;;;;;;;;35.24;37.49;99549.73;107759;1257;61084;-71
2023/08/06 10:32:50;;;;;;;;;;;;;;;35.31;37.91;99547.02;107638;1257;61350;-71
2023/08/06 10:35:37;;;;;;;;;;;;;;;35.41;37.60;99540.64;107543;1257;67937;-70
2023/08/06 10:38:08;;;;;;;;;;;;;;;35.44;36.83;99536.54;107761;1257;62700;-69
2023/08/06 10:40:36;;;;;;;;;;;;;;;35.46;36.96;99533.22;107779;1256;63898;-70
2023/08/06 10:43:06;;;;;;;;;;;;;;;35.48;36.88;99530.86;107770;1255;61128;-71
2023/08/06 10:45:37;;;;;;;;;;;;;;;35.53;36.85;99528.39;107778;1256;61291;-70
2023/08/06 10:48:04;;;;;;;;;;;;;;;35.58;37.23;99522.26;107969;1256;65790;-70
2023/08/06 10:50:32;;;;;;;;;;;;;;;35.62;36.78;99513.72;107797;1257;63818;-70
2023/08/06 10:53:04;;;;;;;;;;;;;;;35.60;36.09;99510.68;107725;1256;63877;-70
2023/08/06 10:55:32;;;;;;;;;;;;;;;35.59;36.42;99503.08;107784;1254;61062;-71
2023/08/06 10:58:02;;;;;;;;;;;;;;;35.61;36.37;99498.96;107676;1255;60946;-71
2023/08/06 11:00:29;;;;;;;;;;;;;;;35.62;36.59;99493.23;107746;1257;67167;-70
2023/08/06 11:02:57;;;;;;;;;;;;;;;35.65;36.90;99490.71;107938;1259;62515;-73
2023/08/06 11:05:24;;;;;;;;;;;;;;;35.74;36.94;99488.11;107633;1256;62522;-71
2023/08/06 11:07:52;;;;;;;;;;;;;;;35.84;36.87;99481.21;107762;1256;61120;-71
2023/08/06 11:10:20;;;;;;;;;;;;;;;35.88;36.58;99483.17;107698;1255;61277;-71
2023/08/06 11:12:47;;;;;;;;;;;;;;;35.94;36.58;99477.48;107672;1254;66042;-70
2023/08/06 11:15:15;;;;;;;;;;;;;;;35.99;36.29;99474.61;107715;1256;67154;-69
2023/08/06 11:17:43;;;;;;;;;;;;;;;35.99;35.97;99473.90;107792;1256;63770;-72
2023/08/06 11:20:10;;;;;;;;;;;;;;;36.00;36.43;99470.27;107539;1256;61282;-74
2023/08/06 11:22:38;;;;;;;;;;;;;;;36.02;36.38;99468.87;107561;1257;61257;-70
2023/08/06 11:25:06;;;;;;;;;;;;;;;36.05;35.88;99462.08;107552;1255;64528;-72
2023/08/06 11:27:34;;;;;;;;;;;;;;;36.09;35.63;99458.89;107616;1255;71917;-69
2023/08/06 11:30:01;;;;;;;;;;;;;;;36.10;34.88;99455.13;107568;1254;63850;-71
2023/08/06 11:32:29;;;;;;;;;;;;;;;36.09;33.94;99447.98;107661;1260;61126;-71
2023/08/06 11:34:57;;;;;;;;;;;;;;;36.11;33.86;99449.75;107546;1254;59857;-71
2023/08/06 11:37:25;;;;;;;;;;;;;;;36.18;34.57;99442.55;107327;1257;64510;-71
2023/08/06 11:39:53;;;;;;;;;;;;;;;36.27;34.64;99436.81;107548;1257;64026;-73
2023/08/06 11:42:20;;;;;;;;;;;;;;;36.29;33.68;99430.66;107519;1257;66006;-71
2023/08/06 11:44:48;;;;;;;;;;;;;;;36.29;32.82;99433.92;107469;1257;61240;-70
2023/08/06 11:47:16;;;;;;;;;;;;;;;36.31;32.74;99435.13;107505;1254;61985;-71
2023/08/06 11:49:45;;;;;;;;;;;;;;;36.33;32.95;99428.98;107323;1256;67849;-72
2023/08/06 11:52:16;;;;;;;;;;;;;;;36.37;33.35;99426.15;85027;1257;10001643;-70
2023/08/06 11:54:43;;;;;;;;;;;;;;;36.40;32.64;99421.80;101126;1255;10001781;-72
2023/08/06 11:57:11;;;;;;;;;;;;;;;36.41;33.03;99423.89;107295;1257;61221;-72
2023/08/06 11:59:39;;;;;;;;;;;;;;;36.47;32.75;99416.09;108401;1257;60784;-69
2023/08/06 12:02:08;;;;;;;;;;;;;;;36.55;32.73;99416.11;108659;1256;65841;-71
2023/08/06 12:04:56;;;;;;;;;;;;;;;36.60;32.79;99415.79;108344;1256;74542;-72
2023/08/06 12:07:30;;;;;;;;;;;;;;;36.66;32.87;99408.95;107345;1259;63803;-71
2023/08/06 12:09:58;;;;;;;;;;;;;;;36.74;32.84;99402.44;107249;1256;61503;-74
2023/08/06 12:12:25;;;;;;;;;;;;;;;36.79;32.68;99401.80;107437;1257;61144;-72
2023/08/06 12:14:54;;;;;;;;;;;;;;;36.83;32.49;99402.79;107570;1257;74810;-72
2023/08/06 12:17:22;;;;;;;;;;;;;;;36.85;32.01;99396.60;107523;1257;63852;-69
2023/08/06 12:19:49;;;;;;;;;;;;;;;36.84;32.25;99393.14;107531;1256;63856;-71
2023/08/06 12:22:18;;;;;;;;;;;;;;;36.89;32.06;99387.34;108462;1257;59847;-71
2023/08/06 12:24:47;;;;;;;;;;;;;;;36.98;32.62;99386.09;107409;1256;61215;-72
2023/08/06 12:27:16;;;;;;;;;;;;;;;37.06;32.15;99380.23;107325;1256;65969;-71
2023/08/06 12:29:44;;;;;;;;;;;;;;;37.14;31.61;99379.73;107465;1257;64151;-74
2023/08/06 12:32:11;;;;;;;;;;;;;;;37.19;30.92;99375.85;107539;1257;62497;-73
2023/08/06 12:34:39;;;;;;;;;;;;;;;37.20;31.32;99370.15;107391;1257;61223;-70
2023/08/06 12:37:19;;;;;;;;;;;;;;;37.23;31.37;99366.12;107691;1256;61128;-70
2023/08/06 12:39:47;;;;;;;;;;;;;;;37.27;30.92;99358.36;107651;1257;64601;-71